createdAt,value
2018-07-20T00:01:33.560Z,5.07
2018-07-20T00:04:02.067Z,3.13
2018-07-20T00:06:31.017Z,6.03
2018-07-20T00:08:59.819Z,5.80
2018-07-20T00:11:28.314Z,4.37
2018-07-20T00:13:56.988Z,4.27
2018-07-20T00:16:25.788Z,4.43
2018-07-20T00:18:54.694Z,4.53
2018-07-20T00:21:23.338Z,5.90
2018-07-20T00:23:51.942Z,3.90
2018-07-20T00:26:21.124Z,5.07
2018-07-20T00:28:49.735Z,6.03
2018-07-20T00:31:18.192Z,4.60
2018-07-20T00:33:47.203Z,5.23
2018-07-20T00:36:15.786Z,5.27
2018-07-20T00:38:44.325Z,3.67
2018-07-20T00:41:13.003Z,6.53
2018-07-20T00:43:41.474Z,4.87
2018-07-20T00:46:09.941Z,4.20
2018-07-20T00:48:38.583Z,5.13
2018-07-20T00:51:07.304Z,3.47
2018-07-20T00:53:35.763Z,3.77
2018-07-20T00:56:04.352Z,3.50
2018-07-20T00:58:32.858Z,6.97
2018-07-20T01:01:01.621Z,3.93
2018-07-20T01:03:30.200Z,5.30
2018-07-20T01:05:58.766Z,7.60
2018-07-20T01:08:27.333Z,6.50
2018-07-20T01:10:56.057Z,5.03
2018-07-20T01:13:24.547Z,6.57
2018-07-20T01:15:53.001Z,9.10
2018-07-20T01:18:21.689Z,5.90
2018-07-20T01:20:50.286Z,6.43
2018-07-20T01:23:18.747Z,4.47
2018-07-20T01:25:47.635Z,5.93
2018-07-20T01:28:16.759Z,5.27
2018-07-20T01:30:45.249Z,7.90
2018-07-20T01:33:13.733Z,5.20
2018-07-20T01:35:42.576Z,7.93
2018-07-20T01:38:10.754Z,4.87
2018-07-20T01:40:39.268Z,5.47
2018-07-20T01:43:08.255Z,5.03
2018-07-20T01:45:36.775Z,8.03
2018-07-20T01:48:05.243Z,5.47
2018-07-20T01:50:33.998Z,6.60
2018-07-20T01:53:02.495Z,5.03
2018-07-20T01:55:30.994Z,5.03
2018-07-20T01:57:59.936Z,6.50
2018-07-20T02:00:28.404Z,6.17
2018-07-20T02:02:56.914Z,5.87
2018-07-20T02:05:25.613Z,4.63
2018-07-20T02:07:54.082Z,7.03
2018-07-20T02:10:22.559Z,9.13
2018-07-20T02:12:51.331Z,8.57
2018-07-20T02:15:19.829Z,7.27
2018-07-20T02:17:48.286Z,8.93
2018-07-20T02:20:17.040Z,4.57
2018-07-20T02:22:45.773Z,6.40
2018-07-20T02:25:14.229Z,5.87
2018-07-20T02:27:42.718Z,5.50
2018-07-20T02:30:11.621Z,7.27
2018-07-20T02:32:40.118Z,6.50
2018-07-20T02:35:08.571Z,5.53
2018-07-20T02:37:37.369Z,4.57
2018-07-20T02:40:06.224Z,5.47
2018-07-20T02:42:34.712Z,6.07
2018-07-20T02:45:03.410Z,7.77
2018-07-20T02:47:31.891Z,6.40
2018-07-20T02:50:00.345Z,5.93
2018-07-20T02:52:28.988Z,7.33
2018-07-20T02:54:57.570Z,8.57
2018-07-20T02:57:26.045Z,10.00
2018-07-20T02:59:54.521Z,6.07
2018-07-20T03:02:23.513Z,6.90
2018-07-20T03:04:54.759Z,6.40
2018-07-20T03:07:23.556Z,6.00
2018-07-20T03:09:52.044Z,5.10
2018-07-20T03:12:20.624Z,6.20
2018-07-20T03:14:49.218Z,7.50
2018-07-20T03:17:17.701Z,6.20
2018-07-20T03:19:46.183Z,4.10
2018-07-20T03:25:07.518Z,4.87
2018-07-20T03:27:36.358Z,7.37
2018-07-20T03:30:04.942Z,6.33
2018-07-20T03:32:33.549Z,7.17
2018-07-20T03:35:02.243Z,5.80
2018-07-20T03:37:30.729Z,5.60
2018-07-20T03:39:59.212Z,6.50
2018-07-20T03:42:27.730Z,7.00
2018-07-20T03:44:56.210Z,7.53
2018-07-20T03:47:24.658Z,6.70
2018-07-20T03:49:53.121Z,6.40
2018-07-20T03:52:21.594Z,7.83
2018-07-20T03:54:50.321Z,7.73
2018-07-20T03:57:18.811Z,4.80
2018-07-20T03:59:47.257Z,6.40
2018-07-20T04:02:16.206Z,5.97
2018-07-20T04:04:44.903Z,7.40
2018-07-20T04:07:13.346Z,7.57
2018-07-20T04:09:42.905Z,7.63
2018-07-20T04:12:11.400Z,9.73
2018-07-20T04:14:39.881Z,6.93
2018-07-20T04:17:08.734Z,7.23
2018-07-20T04:19:37.222Z,6.13
2018-07-20T04:22:06.434Z,9.93
2018-07-20T04:24:35.339Z,7.17
2018-07-20T04:27:03.818Z,10.07
2018-07-20T04:29:32.311Z,11.00
2018-07-20T04:32:00.987Z,9.60
2018-07-20T04:34:29.450Z,8.13
2018-07-20T04:36:57.941Z,8.13
2018-07-20T04:39:26.636Z,10.73
2018-07-20T04:41:55.102Z,8.77
2018-07-20T04:44:25.442Z,6.03
2018-07-20T04:46:54.187Z,7.27
2018-07-20T04:49:23.696Z,7.30
2018-07-20T04:51:52.241Z,11.10
2018-07-20T04:54:21.200Z,8.53
2018-07-20T04:56:49.724Z,9.33
2018-07-20T04:59:18.322Z,7.50
2018-07-20T05:01:46.939Z,9.73
2018-07-20T05:04:15.438Z,9.63
2018-07-20T05:06:44.127Z,7.50
2018-07-20T05:09:12.909Z,11.53
2018-07-20T05:11:41.394Z,19.90
2018-07-20T05:14:10.833Z,11.37
2018-07-20T05:16:39.483Z,8.53
2018-07-20T05:19:07.999Z,8.20
2018-07-20T05:21:36.461Z,11.80
2018-07-20T05:24:05.160Z,7.67
2018-07-20T05:26:33.637Z,9.00
2018-07-20T05:29:02.126Z,8.97
2018-07-20T05:31:30.647Z,11.00
2018-07-20T05:33:59.288Z,8.70
2018-07-20T05:36:27.805Z,10.37
2018-07-20T05:38:56.421Z,10.43
2018-07-20T05:41:24.885Z,9.77
2018-07-20T05:43:53.416Z,12.93
2018-07-20T05:46:23.958Z,10.00
2018-07-20T05:48:52.541Z,12.17
2018-07-20T05:51:21.011Z,10.50
2018-07-20T05:53:50.171Z,9.00
2018-07-20T05:56:18.858Z,12.73
2018-07-20T05:58:47.363Z,9.57
2018-07-20T06:01:16.229Z,10.33
2018-07-20T06:03:44.707Z,10.33
2018-07-20T06:06:13.249Z,11.07
2018-07-20T06:08:42.264Z,9.80
2018-07-20T06:11:10.725Z,8.97
2018-07-20T06:13:40.066Z,17.57
2018-07-20T06:16:08.733Z,10.90
2018-07-20T06:18:37.206Z,12.53
2018-07-20T06:21:06.299Z,12.67
2018-07-20T06:23:35.263Z,12.37
2018-07-20T06:26:03.833Z,18.67
2018-07-20T06:28:32.313Z,14.90
2018-07-20T06:31:01.138Z,16.03
2018-07-20T06:33:29.652Z,15.30
2018-07-20T06:35:58.249Z,17.33
2018-07-20T06:38:26.733Z,14.53
2018-07-20T06:40:55.219Z,14.13
2018-07-20T06:43:24.283Z,13.40
2018-07-20T06:45:52.803Z,15.63
2018-07-20T06:48:21.238Z,17.00
2018-07-20T06:50:50.028Z,13.67
2018-07-20T06:53:18.525Z,17.93
2018-07-20T06:55:47.043Z,16.23
2018-07-20T06:58:15.691Z,16.27
2018-07-20T07:00:44.158Z,17.23
2018-07-20T07:03:12.618Z,18.53
2018-07-20T07:05:41.415Z,18.70
2018-07-20T07:08:09.920Z,16.73
2018-07-20T07:10:38.402Z,17.47
2018-07-20T07:13:07.480Z,15.53
2018-07-20T07:15:35.997Z,15.70
2018-07-20T07:18:04.565Z,15.80
2018-07-20T07:20:33.314Z,17.17
2018-07-20T07:23:01.790Z,16.03
2018-07-20T07:25:30.411Z,14.70
2018-07-20T07:27:59.331Z,17.73
2018-07-20T07:30:28.536Z,13.83
2018-07-20T07:32:57.022Z,16.00
2018-07-20T07:35:25.643Z,17.90
2018-07-20T07:37:54.122Z,13.27
2018-07-20T07:40:22.599Z,14.67
2018-07-20T07:42:58.995Z,13.53
2018-07-20T07:45:27.426Z,15.60
2018-07-20T07:47:55.924Z,15.03
2018-07-20T07:50:24.536Z,15.87
2018-07-20T07:52:53.052Z,15.63
2018-07-20T07:55:21.546Z,16.27
2018-07-20T07:57:50.192Z,17.17
2018-07-20T08:00:18.661Z,15.27
2018-07-20T08:02:47.585Z,17.60
2018-07-20T08:05:16.350Z,14.87
2018-07-20T08:07:44.809Z,19.60
2018-07-20T08:10:13.325Z,16.50
2018-07-20T08:12:42.209Z,15.70
2018-07-20T08:15:10.685Z,18.70
2018-07-20T08:17:39.260Z,21.07
2018-07-20T08:20:08.717Z,16.60
2018-07-20T08:22:37.222Z,20.27
2018-07-20T08:25:05.718Z,19.47
2018-07-20T08:27:34.413Z,21.83
2018-07-20T08:30:02.896Z,23.43
2018-07-20T08:32:31.914Z,23.93
2018-07-20T08:35:00.864Z,17.80
2018-07-20T08:37:29.343Z,19.97
2018-07-20T08:39:57.808Z,16.97
2018-07-20T08:42:26.578Z,18.83
2018-07-20T08:44:55.090Z,21.53
2018-07-20T08:47:23.586Z,22.20
2018-07-20T08:49:52.580Z,19.53
2018-07-20T08:52:21.072Z,22.40
2018-07-20T08:54:49.537Z,19.40
2018-07-20T08:57:19.246Z,18.97
2018-07-20T08:59:47.960Z,18.20
2018-07-20T09:02:16.463Z,19.10
2018-07-20T09:04:45.296Z,15.07
2018-07-20T09:07:13.747Z,15.47
2018-07-20T09:09:42.806Z,17.23
2018-07-20T09:12:11.296Z,24.97
2018-07-20T09:14:39.779Z,18.60
2018-07-20T09:17:08.264Z,14.50
2018-07-20T09:19:37.013Z,20.23
2018-07-20T09:22:05.630Z,16.37
2018-07-20T09:24:34.621Z,20.00
2018-07-20T09:27:03.369Z,17.10
2018-07-20T09:29:31.824Z,17.00
2018-07-20T09:32:00.333Z,20.83
2018-07-20T09:34:29.128Z,15.80
2018-07-20T09:36:57.620Z,14.83
2018-07-20T09:39:26.306Z,16.27
2018-07-20T09:41:59.032Z,18.87
2018-07-20T09:44:27.867Z,17.17
2018-07-20T09:46:56.233Z,16.73
2018-07-20T09:49:24.850Z,13.78
2018-07-20T09:51:53.366Z,15.78
2018-07-20T09:54:21.851Z,15.48
2018-07-20T09:56:50.578Z,18.77
2018-07-20T09:59:19.040Z,14.45
2018-07-20T10:01:47.515Z,16.37
2018-07-20T10:04:16.104Z,14.98
2018-07-20T10:06:44.639Z,18.23
2018-07-20T10:09:13.639Z,17.73
2018-07-20T10:11:42.425Z,14.40
2018-07-20T10:14:11.042Z,14.18
2018-07-20T10:16:39.529Z,13.57
2018-07-20T10:19:08.199Z,16.57
2018-07-20T10:21:36.970Z,17.45
2018-07-20T10:24:05.499Z,12.90
2018-07-20T10:26:33.973Z,17.37
2018-07-20T10:29:02.773Z,14.70
2018-07-20T10:31:31.253Z,15.15
2018-07-20T10:33:59.772Z,13.55
2018-07-20T10:36:28.625Z,12.13
2018-07-20T10:38:57.357Z,17.40
2018-07-20T10:41:25.886Z,16.73
2018-07-20T10:43:54.390Z,13.32
2018-07-20T10:46:23.556Z,14.43
2018-07-20T10:48:52.050Z,15.25
2018-07-20T10:51:20.540Z,14.68
2018-07-20T10:53:49.628Z,15.35
2018-07-20T10:56:18.111Z,11.40
2018-07-20T10:58:46.606Z,17.20
2018-07-20T11:01:15.290Z,14.03
2018-07-20T11:03:43.803Z,17.87
2018-07-20T11:06:12.796Z,12.95
2018-07-20T11:08:41.631Z,12.98
2018-07-20T11:11:10.653Z,11.55
2018-07-20T11:13:39.126Z,14.63
2018-07-20T11:16:07.981Z,12.28
2018-07-20T11:18:36.793Z,12.20
2018-07-20T11:21:05.314Z,16.10
2018-07-20T11:23:33.795Z,13.60
2018-07-20T11:26:02.734Z,13.95
2018-07-20T11:28:31.185Z,13.38
2018-07-20T11:30:59.656Z,15.15
2018-07-20T11:33:28.203Z,12.85
2018-07-20T11:35:56.683Z,12.82
2018-07-20T11:38:25.280Z,20.82
2018-07-20T11:40:54.025Z,15.00
2018-07-20T11:43:22.567Z,12.95
2018-07-20T11:45:51.051Z,11.68
2018-07-20T11:48:19.738Z,12.55
2018-07-20T11:50:48.283Z,14.35
2018-07-20T11:53:16.953Z,13.22
2018-07-20T11:55:45.423Z,16.67
2018-07-20T11:58:13.894Z,15.35
2018-07-20T12:00:42.385Z,13.93
2018-07-20T12:03:10.850Z,11.68
2018-07-20T12:05:39.308Z,12.33
2018-07-20T12:08:08.065Z,11.60
2018-07-20T12:10:36.562Z,12.82
2018-07-20T12:13:05.114Z,12.18
2018-07-20T12:15:33.801Z,9.95
2018-07-20T12:18:02.264Z,12.90
2018-07-20T12:20:30.719Z,12.80
2018-07-20T12:22:59.313Z,9.43
2018-07-20T12:25:27.787Z,12.23
2018-07-20T12:27:56.506Z,12.90
2018-07-20T12:30:24.970Z,9.18
2018-07-20T12:32:53.425Z,14.10
2018-07-20T12:35:21.922Z,12.55
2018-07-20T12:37:50.381Z,9.13
2018-07-20T12:40:18.560Z,14.98
2018-07-20T12:42:47.585Z,8.85
2018-07-20T12:45:16.041Z,9.08
2018-07-20T12:47:44.495Z,11.33
2018-07-20T12:50:13.203Z,9.28
2018-07-20T12:52:42.144Z,10.03
2018-07-20T12:55:10.653Z,9.98
2018-07-20T12:57:39.144Z,8.83
2018-07-20T13:00:08.063Z,8.18
2018-07-20T13:02:36.554Z,10.38
2018-07-20T13:05:05.921Z,6.40
2018-07-20T13:07:34.556Z,11.05
2018-07-20T13:10:03.138Z,9.33
2018-07-20T13:12:32.161Z,6.08
2018-07-20T13:15:00.638Z,11.10
2018-07-20T13:17:29.455Z,9.00
2018-07-20T13:19:58.172Z,7.03
2018-07-20T13:22:26.628Z,7.60
2018-07-20T13:24:55.114Z,6.22
2018-07-20T13:27:24.044Z,6.97
2018-07-20T13:29:52.518Z,9.43
2018-07-20T13:32:21.004Z,12.65
2018-07-20T13:34:49.626Z,8.70
2018-07-20T13:37:18.114Z,11.73
2018-07-20T13:39:46.809Z,9.70
2018-07-20T13:42:15.528Z,8.38
2018-07-20T13:44:44.181Z,10.48
2018-07-20T13:47:12.659Z,7.80
2018-07-20T13:49:41.167Z,8.48
2018-07-20T13:52:09.684Z,5.90
2018-07-20T13:54:38.165Z,5.55
2018-07-20T13:57:07.154Z,9.20
2018-07-20T13:59:35.617Z,6.50
2018-07-20T14:02:04.096Z,6.75
2018-07-20T14:04:32.882Z,7.90
2018-07-20T14:07:01.401Z,5.97
2018-07-20T14:09:29.961Z,6.25
2018-07-20T14:11:58.837Z,6.20
2018-07-20T14:14:27.357Z,9.43
2018-07-20T14:16:55.843Z,7.87
2018-07-20T14:19:31.032Z,10.40
2018-07-20T14:21:59.699Z,5.80
2018-07-20T14:24:28.202Z,8.43
2018-07-20T14:26:56.879Z,6.22
2018-07-20T14:29:25.320Z,6.42
2018-07-20T14:31:53.864Z,6.58
2018-07-20T14:34:22.648Z,5.40
2018-07-20T14:36:51.151Z,6.00
2018-07-20T14:39:19.654Z,6.80
2018-07-20T14:41:49.008Z,4.95
2018-07-20T14:44:17.519Z,7.62
2018-07-20T14:46:46.286Z,6.42
2018-07-20T14:49:14.992Z,7.58
2018-07-20T14:51:43.655Z,6.87
2018-07-20T14:54:12.132Z,9.50
2018-07-20T14:56:40.619Z,6.90
2018-07-20T14:59:09.300Z,5.17
2018-07-20T15:01:37.819Z,6.28
2018-07-20T15:04:06.667Z,5.47
2018-07-20T15:06:35.397Z,5.80
2018-07-20T15:09:07.162Z,6.10
2018-07-20T15:11:37.956Z,6.00
2018-07-20T15:14:07.053Z,6.28
2018-07-20T15:16:36.119Z,5.60
2018-07-20T15:19:05.263Z,5.42
2018-07-20T15:21:34.434Z,5.17
2018-07-20T15:24:03.631Z,4.75
2018-07-20T15:26:33.306Z,4.80
2018-07-20T15:29:02.363Z,6.37
2018-07-20T15:31:31.488Z,6.67
2018-07-20T15:34:01.123Z,4.70
2018-07-20T15:36:30.235Z,8.75
2018-07-20T15:38:59.307Z,6.20
2018-07-20T15:41:28.623Z,9.38
2018-07-20T15:43:58.158Z,8.00
2018-07-20T15:46:27.305Z,9.13
2018-07-20T15:48:56.527Z,5.10
2018-07-20T15:51:55.461Z,6.15
2018-07-20T15:53:55.001Z,6.20
2018-07-20T15:56:24.192Z,7.25
2018-07-20T15:58:53.256Z,12.28
2018-07-20T16:01:22.310Z,8.93
2018-07-20T16:03:51.922Z,8.78
2018-07-20T16:06:21.006Z,6.65
2018-07-20T16:08:50.242Z,6.60
2018-07-20T16:11:19.510Z,5.10
2018-07-20T16:13:48.795Z,9.73
2018-07-20T16:16:17.909Z,7.00
2018-07-20T16:18:47.128Z,8.30
2018-07-20T16:21:16.357Z,7.28
2018-07-20T16:23:45.411Z,5.30
2018-07-20T16:26:14.508Z,7.25
2018-07-20T16:28:43.972Z,9.30
2018-07-20T16:31:13.019Z,7.33
2018-07-20T16:33:42.095Z,5.45
2018-07-20T16:36:11.359Z,7.20
2018-07-20T16:38:40.401Z,9.90
2018-07-20T16:41:09.487Z,8.75
2018-07-20T16:43:38.961Z,7.45
2018-07-20T16:46:08.436Z,7.67
2018-07-20T16:48:37.492Z,7.55
2018-07-20T16:51:06.774Z,8.48
2018-07-20T16:53:35.851Z,7.83
2018-07-20T16:56:04.951Z,6.15
2018-07-20T16:58:34.161Z,7.92
2018-07-20T17:01:03.274Z,8.20
2018-07-20T17:03:32.444Z,6.60
2018-07-20T17:06:01.747Z,8.45
2018-07-20T17:08:30.856Z,5.65
2018-07-20T17:11:00.240Z,11.88
2018-07-20T17:13:29.320Z,8.38
2018-07-20T17:15:58.370Z,9.00
2018-07-20T17:18:27.952Z,10.48
2018-07-20T17:20:57.055Z,13.85
2018-07-20T17:23:26.246Z,9.05
2018-07-20T17:25:55.776Z,7.20
2018-07-20T17:28:24.840Z,9.08
2018-07-20T17:30:53.906Z,7.83
2018-07-20T17:33:23.140Z,9.40
2018-07-20T17:35:52.524Z,8.55
2018-07-20T17:38:21.586Z,7.80
2018-07-20T17:40:50.688Z,7.53
2018-07-20T17:43:19.894Z,7.92
2018-07-20T17:45:49.035Z,10.40
2018-07-20T17:48:18.110Z,10.23
2018-07-20T17:50:47.223Z,7.97
2018-07-20T17:53:16.363Z,8.40
2018-07-20T17:55:45.908Z,9.18
2018-07-20T17:58:14.970Z,10.70
2018-07-20T18:00:44.062Z,7.60
2018-07-20T18:03:13.407Z,9.23
2018-07-20T18:05:42.487Z,10.00
2018-07-20T18:08:11.787Z,10.65
2018-07-20T18:10:41.431Z,8.58
2018-07-20T18:13:10.563Z,9.38
2018-07-20T18:15:39.818Z,7.80
2018-07-20T18:18:08.899Z,9.23
2018-07-20T18:20:38.051Z,8.65
2018-07-20T18:23:07.295Z,12.25
2018-07-20T18:25:36.374Z,9.45
2018-07-20T18:28:05.658Z,8.85
2018-07-20T18:30:34.855Z,10.20
2018-07-20T18:33:03.982Z,7.95
2018-07-20T18:35:33.280Z,7.40
2018-07-20T18:38:02.351Z,10.38
2018-07-20T18:40:31.473Z,8.83
2018-07-20T18:43:00.722Z,9.65
2018-07-20T18:45:29.973Z,5.60
2018-07-20T18:47:59.048Z,9.25
2018-07-20T18:50:28.454Z,6.70
2018-07-20T18:52:57.543Z,12.28
2018-07-20T18:55:26.644Z,7.40
2018-07-20T18:57:55.826Z,6.97
2018-07-20T19:00:24.880Z,5.72
2018-07-20T19:02:54.150Z,8.80
2018-07-20T19:05:23.398Z,8.40
2018-07-20T19:07:52.291Z,8.73
2018-07-20T19:10:21.380Z,8.60
2018-07-20T19:12:50.521Z,5.90
2018-07-20T19:15:19.749Z,9.35
2018-07-20T19:17:48.804Z,6.53
2018-07-20T19:20:17.904Z,6.42
2018-07-20T19:22:47.524Z,7.42
2018-07-20T19:25:16.614Z,8.70
2018-07-20T19:27:45.686Z,7.10
2018-07-20T19:30:15.003Z,4.58
2018-07-20T19:32:44.676Z,9.70
2018-07-20T19:35:13.872Z,8.13
2018-07-20T19:37:42.945Z,9.87
2018-07-20T19:40:12.924Z,7.70
2018-07-20T19:42:44.488Z,6.37
2018-07-20T19:45:14.386Z,9.83
2018-07-20T19:47:43.812Z,9.05
2018-07-20T19:50:12.923Z,12.55
2018-07-20T19:52:42.195Z,7.00
2018-07-20T19:55:11.289Z,9.33
2018-07-20T19:57:40.566Z,6.17
2018-07-20T20:00:10.554Z,6.60
2018-07-20T20:02:39.885Z,8.25
2018-07-20T20:05:09.040Z,7.33
2018-07-20T20:07:38.823Z,7.70
2018-07-20T20:10:08.513Z,7.47
2018-07-20T20:12:38.170Z,5.10
2018-07-20T20:15:08.121Z,8.13
2018-07-20T20:17:37.207Z,6.80
2018-07-20T20:20:10.105Z,9.57
2018-07-20T20:22:39.182Z,6.00
2018-07-20T20:25:08.526Z,5.77
2018-07-20T20:27:37.808Z,5.70
2018-07-20T20:30:07.033Z,6.27
2018-07-20T20:32:36.936Z,6.10
2018-07-20T20:35:06.186Z,8.53
2018-07-20T20:37:35.384Z,6.50
2018-07-20T20:40:05.053Z,5.63
2018-07-20T20:42:34.128Z,8.53
2018-07-20T20:45:03.439Z,6.77
2018-07-20T20:47:32.538Z,6.40
2018-07-20T20:50:01.582Z,5.93
2018-07-20T20:52:31.563Z,7.03
2018-07-20T20:55:01.077Z,6.83
2018-07-20T20:57:30.245Z,6.07
2018-07-20T20:59:59.446Z,5.07
2018-07-20T21:02:28.673Z,10.50
2018-07-20T21:04:57.777Z,7.67
2018-07-20T21:07:26.964Z,7.63
2018-07-20T21:09:57.065Z,7.00
2018-07-20T21:12:26.182Z,6.77
2018-07-20T21:14:55.395Z,8.00
2018-07-20T21:17:24.469Z,6.57
2018-07-20T21:19:53.629Z,8.13
2018-07-20T21:22:22.942Z,7.70
2018-07-20T21:24:52.091Z,5.13
2018-07-20T21:27:21.759Z,9.80
2018-07-20T21:29:51.353Z,7.53
2018-07-20T21:32:20.428Z,8.40
2018-07-20T21:34:49.520Z,6.33
2018-07-20T21:37:19.632Z,8.30
2018-07-20T21:39:49.139Z,7.07
2018-07-20T21:42:18.256Z,7.43
2018-07-20T21:44:47.555Z,4.60
2018-07-20T21:47:16.840Z,7.27
2018-07-20T21:49:46.494Z,5.63
2018-07-20T21:52:15.955Z,6.43
2018-07-20T21:54:45.622Z,9.17
2018-07-20T21:57:14.798Z,5.47
2018-07-20T21:59:56.447Z,10.77
2018-07-20T22:02:40.878Z,5.70
2018-07-20T22:05:27.135Z,6.30
2018-07-20T22:08:13.900Z,8.43
2018-07-20T22:10:58.641Z,9.27
2018-07-20T22:16:29.784Z,6.97
2018-07-20T22:19:21.446Z,8.07
2018-07-20T22:22:05.176Z,12.30
2018-07-20T22:24:51.018Z,9.70
2018-07-20T22:27:35.118Z,7.77
2018-07-20T22:30:24.796Z,8.73
2018-07-20T22:33:05.267Z,6.90
2018-07-20T22:35:48.209Z,11.10
2018-07-20T22:38:36.296Z,6.07
2018-07-20T22:41:20.063Z,8.87
2018-07-20T22:44:04.161Z,6.13
2018-07-20T22:46:49.186Z,7.60
2018-07-20T22:49:44.740Z,7.90
2018-07-20T22:52:39.189Z,8.07
2018-07-20T22:55:22.994Z,12.87
2018-07-20T22:58:11.711Z,8.57
2018-07-20T23:00:57.638Z,6.50
2018-07-20T23:06:22.903Z,6.63
2018-07-20T23:09:10.295Z,5.97
2018-07-20T23:11:51.456Z,7.40
2018-07-20T23:14:37.339Z,7.07
2018-07-20T23:17:25.063Z,9.87
2018-07-20T23:20:06.787Z,7.10
2018-07-20T23:22:47.349Z,5.27
2018-07-20T23:28:22.990Z,7.03
2018-07-20T23:31:08.432Z,7.27
2018-07-20T23:33:53.173Z,10.53
2018-07-20T23:36:42.472Z,7.33
2018-07-20T23:39:30.502Z,6.53
2018-07-20T23:42:20.280Z,6.00
2018-07-20T23:44:55.358Z,6.27
2018-07-20T23:47:43.063Z,6.20
2018-07-20T23:50:24.968Z,6.73
2018-07-20T23:53:17.129Z,7.33
2018-07-20T23:56:01.934Z,10.13
2018-07-20T23:58:52.817Z,9.73
